Time;durP1;ratioP1;P1;durP2;ratioP2;P2;SDS_P1;SDS_P2;PMS_P1;PMS_P2;Temp;Humidity;BMP_temperature;BMP_pressure;BME280_temperature;BME280_humidity;BME280_pressure;Samples;Min_cycle;Max_cycle;Signal;HPM_P1;HPM_P2
2022/11/21 00:01:28;;;;;;;62.93;45.77;;;13.90;75.70;;;;;;4590090;19;20353;-20
2022/11/21 00:03:00;;;;;;;;;;;13.90;75.70;;;;;;4591051;19;20039;-21
2022/11/21 00:04:33;;;;;;;70.05;47.33;;;13.90;75.70;;;;;;4589714;19;19915;-21
2022/11/21 00:06:05;;;;;;;69.07;45.77;;;13.90;75.60;;;;;;4590332;19;20607;-21
2022/11/21 00:07:38;;;;;;;63.70;45.27;;;13.90;75.60;;;;;;4590202;19;20471;-22
2022/11/21 00:09:09;;;;;;;66.78;44.08;;;13.90;75.60;;;;;;4590449;19;20487;-20
2022/11/21 00:10:41;;;;;;;;;;;13.90;75.70;;;;;;4591959;19;20487;-20
2022/11/21 00:12:15;;;;;;;63.67;43.47;;;13.90;75.60;;;;;;4591710;19;19926;-21
2022/11/21 00:13:46;;;;;;;64.03;43.40;;;13.90;75.50;;;;;;4591980;19;20035;-20
2022/11/21 00:15:18;;;;;;;63.67;44.33;;;13.90;75.50;;;;;;4592279;19;20464;-20
2022/11/21 00:16:49;;;;;;;66.53;44.55;;;13.90;75.50;;;;;;4592283;19;20011;-20
2022/11/21 00:18:21;;;;;;;60.57;42.57;;;13.90;75.40;;;;;;4592344;19;20007;-20
2022/11/21 00:19:54;;;;;;;62.00;43.00;;;13.90;75.30;;;;;;4592090;19;20436;-20
2022/11/21 00:21:27;;;;;;;60.27;42.17;;;13.90;75.10;;;;;;4591999;19;20487;-20
2022/11/21 00:22:58;;;;;;;58.80;42.03;;;13.90;75.10;;;;;;4591260;19;20014;-20
2022/11/21 00:24:29;;;;;;;60.22;41.88;;;13.90;75.10;;;;;;4591847;19;20056;-20
2022/11/21 00:26:08;;;;;;;61.60;42.97;;;13.90;75.20;;;;;;4591886;19;20018;-21
2022/11/21 00:27:41;;;;;;;62.30;43.00;;;13.90;75.20;;;;;;4590695;19;20490;-20
2022/11/21 00:29:13;;;;;;;56.77;41.60;;;13.80;75.00;;;;;;4591449;19;20818;-19
2022/11/21 00:30:44;;;;;;;60.78;41.50;;;13.90;75.00;;;;;;4590816;19;20437;-20
2022/11/21 00:32:17;;;;;;;62.93;43.13;;;13.90;74.80;;;;;;4590672;19;20014;-20
2022/11/21 00:33:49;;;;;;;58.70;40.33;;;13.90;74.80;;;;;;4591454;19;20497;-20
2022/11/21 00:35:23;;;;;;;57.00;41.47;;;13.80;74.70;;;;;;4591082;19;20007;-22
2022/11/21 00:36:55;;;;;;;58.30;39.97;;;13.80;74.60;;;;;;4590551;19;20465;-20
2022/11/21 00:38:26;;;;;;;59.00;40.77;;;13.90;74.70;;;;;;4591457;19;20021;-21
2022/11/21 00:39:59;;;;;;;52.67;38.77;;;13.90;74.60;;;;;;4590095;19;20058;-20
2022/11/21 00:41:30;;;;;;;59.53;41.63;;;13.80;74.60;;;;;;4591215;19;20532;-20
2022/11/21 00:43:01;;;;;;;60.22;41.40;;;13.80;74.50;;;;;;4591499;19;20365;-22
2022/11/21 00:44:33;;;;;;;55.35;39.97;;;13.80;74.60;;;;;;4591234;19;20019;-20
2022/11/21 00:46:06;;;;;;;61.17;41.93;;;13.80;74.40;;;;;;4591747;19;20044;-21
2022/11/21 00:47:37;;;;;;;58.33;41.70;;;13.80;74.30;;;;;;4590329;19;20767;-20
2022/11/21 00:49:10;;;;;;;62.17;42.83;;;13.80;74.50;;;;;;4590911;19;20022;-21
2022/11/21 00:50:41;;;;;;;57.08;40.47;;;13.80;74.60;;;;;;4591575;19;20520;-21
2022/11/21 00:52:14;;;;;;;58.30;40.17;;;13.80;74.40;;;;;;4591746;19;20475;-20
2022/11/21 00:53:46;;;;;;;57.83;40.90;;;13.80;74.30;;;;;;4590948;19;20021;-22
2022/11/21 00:55:18;;;;;;;58.17;40.03;;;13.80;74.20;;;;;;4590289;19;20349;-22
2022/11/21 00:56:49;;;;;;;;;;;13.80;74.20;;;;;;4591702;19;20031;-21
2022/11/21 00:58:21;;;;;;;61.83;40.70;;;13.80;74.20;;;;;;4591562;19;19918;-23
2022/11/21 00:59:53;;;;;;;63.97;40.60;;;13.80;74.00;;;;;;4590023;19;20440;-24
2022/11/21 01:01:27;;;;;;;58.27;42.27;;;13.80;74.00;;;;;;4590761;19;20576;-20
2022/11/21 01:03:00;;;;;;;60.57;41.67;;;13.80;74.00;;;;;;4591050;19;20022;-22
2022/11/21 01:04:32;;;;;;;61.77;42.47;;;13.80;74.00;;;;;;4591171;19;20011;-21
2022/11/21 01:06:11;;;;;;;64.43;42.33;;;13.80;74.00;;;;;;4591162;19;20520;-21
2022/11/21 01:07:43;;;;;;;60.77;41.30;;;13.80;74.00;;;;;;4591162;19;20015;-20
2022/11/21 01:09:14;;;;;;;61.17;42.83;;;13.80;74.10;;;;;;4591142;19;20498;-20
2022/11/21 01:10:47;;;;;;;57.80;40.80;;;13.80;74.10;;;;;;4590169;19;20014;-20
2022/11/21 01:12:21;;;;;;;56.00;41.27;;;13.80;73.90;;;;;;4590504;19;21048;-23
2022/11/21 01:13:52;;;;;;;58.05;40.55;;;13.80;74.00;;;;;;4590709;19;20440;-20
2022/11/21 01:15:23;;;;;;;59.33;40.63;;;13.80;74.00;;;;;;4590943;19;20003;-20
2022/11/21 01:16:55;;;;;;;58.37;40.67;;;13.80;74.10;;;;;;4591232;19;20091;-21
2022/11/21 01:18:27;;;;;;;57.40;39.73;;;13.80;74.00;;;;;;4590978;19;20445;-20
2022/11/21 01:19:59;;;;;;;54.87;39.27;;;13.80;74.10;;;;;;4590335;19;20479;-20
2022/11/21 01:21:32;;;;;;;57.83;40.17;;;13.80;74.00;;;;;;4591237;19;20038;-22
2022/11/21 01:23:03;;;;;;;55.45;39.25;;;13.80;73.90;;;;;;4590032;19;20548;-20
2022/11/21 01:24:35;;;;;;;58.10;39.53;;;13.80;73.80;;;;;;4590629;19;20010;-21
2022/11/21 01:26:08;;;;;;;52.35;37.83;;;13.80;73.70;;;;;;4590855;19;20011;-20
2022/11/21 01:27:42;;;;;;;57.80;40.73;;;13.80;73.70;;;;;;4589804;19;20006;-20
2022/11/21 01:29:12;;;;;;;56.75;40.30;;;13.80;73.70;;;;;;4590015;19;20467;-20
2022/11/21 01:30:44;;;;;;;55.22;38.58;;;13.80;73.70;;;;;;4590105;19;20015;-22
2022/11/21 01:32:15;;;;;;;54.22;39.40;;;13.80;73.60;;;;;;4590631;19;20078;-21
2022/11/21 01:33:48;;;;;;;57.33;40.50;;;13.80;73.50;;;;;;4590602;19;20478;-20
2022/11/21 01:35:20;;;;;;;60.20;40.27;;;13.80;73.40;;;;;;4590042;19;20018;-21
2022/11/21 01:36:53;;;;;;;57.73;40.17;;;13.80;73.70;;;;;;4590482;19;20421;-19
2022/11/21 01:38:26;;;;;;;57.33;40.80;;;13.80;73.60;;;;;;4589521;19;20571;-20
2022/11/21 03:09:59;;;;;;;49.27;35.40;;;13.70;72.90;;;;;;4584280;19;20831;-20
2022/11/21 03:11:31;;;;;;;51.27;36.20;;;13.70;73.10;;;;;;4589036;19;20520;-22
2022/11/21 03:13:03;;;;;;;47.20;34.85;;;13.70;73.00;;;;;;4588635;19;20440;-24
2022/11/21 03:14:37;;;;;;;47.23;34.37;;;13.70;73.70;;;;;;4587650;19;20034;-20
2022/11/21 03:16:08;;;;;;;51.00;36.63;;;13.70;73.00;;;;;;4588250;19;20449;-22
2022/11/21 03:17:41;;;;;;;46.63;36.57;;;13.70;73.00;;;;;;4592011;19;20027;-20
2022/11/21 03:19:13;;;;;;;46.73;33.70;;;13.70;73.00;;;;;;4593553;19;20433;-20
2022/11/21 03:20:44;;;;;;;46.22;33.03;;;13.70;72.80;;;;;;4592316;19;20436;-20
2022/11/21 03:22:17;;;;;;;46.97;33.87;;;13.70;72.90;;;;;;4591910;19;20010;-21
2022/11/21 03:23:48;;;;;;;46.63;34.30;;;13.70;72.80;;;;;;4592995;19;20492;-20
2022/11/21 03:25:20;;;;;;;48.87;33.40;;;13.70;72.90;;;;;;4590870;19;20032;-20
2022/11/21 03:26:52;;;;;;;;;;;13.70;73.00;;;;;;4593848;19;20524;-20
2022/11/21 03:28:23;;;;;;;46.57;32.73;;;13.70;72.90;;;;;;4592372;19;20346;-20
2022/11/21 03:29:54;;;;;;;49.60;33.95;;;13.70;73.10;;;;;;4592758;19;20416;-23
2022/11/21 03:31:26;;;;;;;47.00;34.03;;;13.70;73.10;;;;;;4592900;19;20066;-23
2022/11/21 03:32:57;;;;;;;53.10;36.37;;;13.70;73.30;;;;;;4592930;19;20432;-21
2022/11/21 03:34:28;;;;;;;52.55;37.30;;;13.70;73.20;;;;;;4593419;19;20905;-20
2022/11/21 03:36:00;;;;;;;58.03;39.97;;;13.70;73.40;;;;;;4592991;19;20017;-20
2022/11/21 03:37:32;;;;;;;49.33;35.10;;;13.70;73.40;;;;;;4592943;19;20468;-20
2022/11/21 03:39:04;;;;;;;52.97;37.67;;;13.70;73.50;;;;;;4593125;19;20459;-21
2022/11/21 03:40:35;;;;;;;49.33;34.88;;;13.70;73.70;;;;;;4591942;19;20461;-20
2022/11/21 03:42:08;;;;;;;50.87;35.93;;;13.70;73.90;;;;;;4592818;19;20017;-23
2022/11/21 03:43:39;;;;;;;49.38;35.40;;;13.70;73.90;;;;;;4591814;19;20437;-21
2022/11/21 03:45:10;;;;;;;50.45;36.25;;;13.70;74.00;;;;;;4591581;19;20014;-21
2022/11/21 03:46:45;;;;;;;49.33;35.13;;;13.70;74.00;;;;;;4593159;19;20007;-21
2022/11/21 03:48:17;;;;;;;46.20;33.40;;;13.70;74.10;;;;;;4593028;19;20027;-24
2022/11/21 03:49:49;;;;;;;50.97;36.33;;;13.70;74.10;;;;;;4590367;19;20925;-20
2022/11/21 03:51:21;;;;;;;49.80;36.42;;;13.70;74.30;;;;;;4591819;19;20444;-23
2022/11/21 03:52:52;;;;;;;;;;;13.70;74.40;;;;;;4592482;19;20369;-19
2022/11/21 03:54:23;;;;;;;51.90;36.50;;;13.70;74.30;;;;;;4592078;19;19919;-24
2022/11/21 03:55:54;;;;;;;49.30;35.28;;;13.70;74.30;;;;;;4591526;19;20006;-20
2022/11/21 03:57:26;;;;;;;48.92;35.30;;;13.70;74.50;;;;;;4592381;19;20381;-21
2022/11/21 03:58:57;;;;;;;50.50;36.33;;;13.70;74.40;;;;;;4592411;19;20027;-22
2022/11/21 04:00:28;;;;;;;50.05;35.10;;;13.70;74.40;;;;;;4592404;19;20048;-19
2022/11/21 04:02:01;;;;;;;49.83;36.37;;;13.70;74.40;;;;;;4592617;19;20017;-22
2022/11/21 04:03:33;;;;;;;50.30;34.30;;;13.70;74.40;;;;;;4592853;19;20433;-20
2022/11/21 04:05:04;;;;;;;50.60;35.05;;;13.70;74.50;;;;;;4591594;19;20007;-22
2022/11/21 04:06:36;;;;;;;47.37;34.10;;;13.70;74.50;;;;;;4592486;19;20070;-20
2022/11/21 04:08:08;;;;;;;45.57;34.43;;;13.70;74.40;;;;;;4591292;19;20413;-20
2022/11/21 04:09:40;;;;;;;52.97;37.38;;;13.70;74.50;;;;;;4591814;19;20417;-22
2022/11/21 04:11:15;;;;;;;47.77;35.20;;;13.70;74.60;;;;;;4592342;19;20007;-20
2022/11/21 04:12:48;;;;;;;48.10;34.90;;;13.70;74.50;;;;;;4592358;19;20413;-20
2022/11/21 04:14:20;;;;;;;46.93;34.70;;;13.70;74.50;;;;;;4592545;19;21055;-22
2022/11/21 04:15:52;;;;;;;46.90;34.47;;;13.70;74.60;;;;;;4592352;19;20455;-21
2022/11/21 04:17:25;;;;;;;44.30;32.63;;;13.70;74.60;;;;;;4592069;19;20421;-21
2022/11/21 04:18:56;;;;;;;50.30;34.93;;;13.70;74.50;;;;;;4592178;19;21021;-20
2022/11/21 04:20:30;;;;;;;49.20;34.37;;;13.70;74.50;;;;;;4592046;19;20484;-20
2022/11/21 04:22:02;;;;;;;49.13;35.23;;;13.70;74.30;;;;;;4593527;19;21049;-21
2022/11/21 04:23:35;;;;;;;49.67;36.63;;;13.70;74.10;;;;;;4592254;19;21020;-23
2022/11/21 04:25:08;;;;;;;48.53;36.23;;;13.70;74.10;;;;;;4591487;19;20483;-20
2022/11/21 04:26:39;;;;;;;53.13;37.00;;;13.70;73.90;;;;;;4591854;19;20764;-22
2022/11/21 04:28:11;;;;;;;51.67;37.13;;;13.60;73.90;;;;;;4591804;19;20021;-23
2022/11/21 04:29:44;;;;;;;52.27;37.77;;;13.60;73.90;;;;;;4588148;19;20015;-20
2022/11/21 04:31:14;;;;;;;53.05;39.05;;;13.60;73.90;;;;;;4590354;19;20820;-22
2022/11/21 04:32:50;;;;;;;56.40;41.17;;;13.60;73.80;;;;;;4591694;19;20062;-20
2022/11/21 04:34:21;;;;;;;55.43;38.30;;;13.60;74.10;;;;;;4591993;19;20421;-20
2022/11/21 04:35:54;;;;;;;50.93;37.37;;;13.60;74.50;;;;;;4591702;19;21016;-22
2022/11/21 04:37:27;;;;;;;51.60;37.30;;;13.60;75.20;;;;;;4591565;19;20475;-20
2022/11/21 04:38:59;;;;;;;50.77;36.40;;;13.60;75.50;;;;;;4590936;19;21021;-21
2022/11/21 04:40:31;;;;;;;51.03;37.43;;;13.60;75.70;;;;;;4590562;19;20503;-21
2022/11/21 04:42:03;;;;;;;54.38;39.35;;;13.70;76.40;;;;;;4593825;19;20482;-21
2022/11/21 04:43:35;;;;;;;57.07;41.70;;;13.70;75.70;;;;;;4589023;19;20010;-21
2022/11/21 04:45:07;;;;;;;54.63;43.20;;;13.70;75.50;;;;;;4588425;19;20517;-19
2022/11/21 04:46:38;;;;;;;64.53;45.00;;;13.70;75.40;;;;;;4589068;19;20015;-20
2022/11/21 04:48:10;;;;;;;56.53;41.35;;;13.70;75.10;;;;;;4589998;19;20571;-20
2022/11/21 04:49:42;;;;;;;55.30;39.73;;;13.80;74.90;;;;;;4589015;19;20749;-21
2022/11/21 04:51:14;;;;;;;49.90;37.33;;;13.80;74.60;;;;;;4589261;19;20480;-20
2022/11/21 04:52:51;;;;;;;53.40;37.00;;;13.90;74.50;;;;;;4589204;19;20444;-20
2022/11/21 04:54:24;;;;;;;48.63;35.90;;;13.90;74.20;;;;;;4589135;19;20006;-20
2022/11/21 04:55:56;;;;;;;50.13;37.10;;;14.00;74.20;;;;;;4589331;19;20524;-20
2022/11/21 04:57:27;;;;;;;50.15;37.20;;;14.00;73.90;;;;;;4589813;19;20481;-20
2022/11/21 04:59:01;;;;;;;51.13;36.67;;;14.10;73.80;;;;;;4589364;19;20011;-20
2022/11/21 05:00:33;;;;;;;50.23;36.57;;;14.10;73.80;;;;;;4588353;19;20453;-20
2022/11/21 05:02:04;;;;;;;49.37;37.80;;;14.10;73.80;;;;;;4590541;19;20018;-21
2022/11/21 05:03:37;;;;;;;54.30;40.97;;;14.10;73.80;;;;;;4590555;19;20491;-20
2022/11/21 05:05:10;;;;;;;52.03;37.40;;;14.10;73.80;;;;;;4587726;19;20025;-21
2022/11/21 05:06:42;;;;;;;49.27;35.50;;;14.20;73.80;;;;;;4589109;19;20346;-21
2022/11/21 05:08:13;;;;;;;50.10;36.53;;;14.20;73.80;;;;;;4589268;19;20006;-20
2022/11/21 05:09:44;;;;;;;47.88;35.78;;;14.20;73.80;;;;;;4588087;19;20015;-21
2022/11/21 05:13:20;;;;;;;48.33;39.03;;;14.10;73.90;;;;;;4589113;19;20010;-20
2022/11/21 05:14:53;;;;;;;54.23;39.00;;;14.10;74.30;;;;;;4590687;19;20469;-21
2022/11/21 05:16:25;;;;;;;50.20;38.67;;;14.20;74.60;;;;;;4592030;19;20473;-22
2022/11/21 05:17:58;;;;;;;50.85;38.20;;;14.30;74.40;;;;;;4590443;19;20018;-21
2022/11/21 05:19:32;;;;;;;47.90;36.60;;;14.30;74.50;;;;;;4591465;19;20493;-21
2022/11/21 05:21:03;;;;;;;52.67;37.95;;;14.20;74.60;;;;;;4590197;19;20453;-20
2022/11/21 05:22:36;;;;;;;54.73;43.13;;;14.20;74.50;;;;;;4592208;19;20089;-20
2022/11/21 05:24:08;;;;;;;56.53;45.27;;;14.10;74.70;;;;;;4591506;19;20500;-20
2022/11/21 05:25:39;;;;;;;;;;;14.20;74.60;;;;;;4591367;19;20015;-20
2022/11/21 05:27:10;;;;;;;65.47;50.37;;;14.10;74.70;;;;;;4591597;19;19919;-21
2022/11/21 05:28:41;;;;;;;69.82;53.17;;;14.10;74.80;;;;;;4589496;19;20015;-21
2022/11/21 05:30:13;;;;;;;67.50;50.53;;;14.10;74.80;;;;;;4590998;19;20010;-21
2022/11/21 05:31:45;;;;;;;58.90;44.63;;;14.10;74.90;;;;;;4591502;19;20019;-21
2022/11/21 05:33:19;;;;;;;55.87;42.37;;;14.00;75.00;;;;;;4591797;19;20508;-21
2022/11/21 05:34:51;;;;;;;54.37;40.13;;;14.00;75.00;;;;;;4590127;19;20040;-19
2022/11/21 05:36:22;;;;;;;54.75;40.30;;;14.00;75.00;;;;;;4590949;19;20035;-20
2022/11/21 05:37:57;;;;;;;48.60;37.90;;;14.00;74.90;;;;;;4591334;19;20014;-20
2022/11/21 05:39:29;;;;;;;50.60;37.83;;;14.00;74.80;;;;;;4591163;19;20459;-21
2022/11/21 05:41:00;;;;;;;52.28;39.35;;;13.90;74.70;;;;;;4588642;19;20013;-21
2022/11/21 05:44:21;;;;;;;49.27;37.80;;;13.90;74.80;;;;;;4589749;19;20014;-20
2022/11/21 05:45:52;;;;;;;55.30;38.95;;;13.90;74.90;;;;;;4587649;19;20461;-21
2022/11/21 05:47:23;;;;;;;60.20;43.38;;;14.00;75.00;;;;;;4589484;19;20391;-21
2022/11/21 05:48:55;;;;;;;60.83;42.45;;;13.90;74.90;;;;;;4588611;19;20507;-21
2022/11/21 05:50:26;;;;;;;58.30;43.83;;;13.90;74.90;;;;;;4591920;19;20024;-21
2022/11/21 05:51:56;;;;;;;66.07;48.33;;;13.90;74.80;;;;;;4591709;19;20031;-21
2022/11/21 05:53:28;;;;;;;63.92;46.67;;;13.90;74.90;;;;;;4590841;19;20013;-20
2022/11/21 05:54:59;;;;;;;57.60;43.47;;;13.80;74.80;;;;;;4588827;19;20027;-23
2022/11/21 05:56:30;;;;;;;56.70;43.75;;;13.80;74.80;;;;;;4589057;19;20018;-21
2022/11/21 05:58:02;;;;;;;60.15;44.97;;;13.80;74.70;;;;;;4589450;19;20011;-21
2022/11/21 05:59:33;;;;;;;57.22;42.15;;;13.80;74.80;;;;;;4591507;19;20496;-21
2022/11/21 06:01:04;;;;;;;57.35;42.58;;;13.80;74.80;;;;;;4591225;19;20070;-20
2022/11/21 06:04:27;;;;;;;56.60;42.67;;;13.80;74.80;;;;;;4591557;19;20429;-20
2022/11/21 06:06:06;;;;;;;60.55;42.40;;;13.80;75.00;;;;;;4589667;19;20524;-20
2022/11/21 06:07:37;;;;;;;61.07;42.60;;;13.80;75.00;;;;;;4590580;19;20488;-20
2022/11/21 06:09:08;;;;;;;56.92;40.78;;;13.80;75.10;;;;;;4590316;19;20450;-20
2022/11/21 06:10:39;;;;;;;55.90;40.65;;;13.80;75.10;;;;;;4589674;19;20014;-21
2022/11/21 06:12:11;;;;;;;52.85;39.45;;;13.80;75.30;;;;;;4588275;19;20021;-20
2022/11/21 06:13:42;;;;;;;56.38;40.22;;;13.80;75.40;;;;;;4588505;19;20484;-23
2022/11/21 06:15:13;;;;;;;52.88;39.00;;;13.80;75.50;;;;;;4588772;19;20409;-20
2022/11/21 06:16:46;;;;;;;51.47;39.93;;;13.80;75.40;;;;;;4586587;19;20030;-21
2022/11/21 06:18:17;;;;;;;54.72;40.00;;;13.80;75.30;;;;;;4590212;19;20469;-20
2022/11/21 06:19:48;;;;;;;56.38;40.08;;;13.80;75.30;;;;;;4591150;19;20010;-22
2022/11/21 06:21:24;;;;;;;54.33;39.38;;;13.80;75.40;;;;;;4590847;19;20541;-20
2022/11/21 06:22:54;;;;;;;56.80;40.37;;;13.80;75.40;;;;;;4589487;19;20010;-21
2022/11/21 06:24:26;;;;;;;55.25;41.22;;;13.80;75.50;;;;;;4589774;19;20086;-21
2022/11/21 06:25:58;;;;;;;56.08;42.05;;;13.80;75.30;;;;;;4588116;19;20365;-23
2022/11/21 06:27:29;;;;;;;56.33;41.50;;;13.80;75.50;;;;;;4589455;19;20035;-23
2022/11/21 06:29:00;;;;;;;55.78;41.53;;;13.80;75.50;;;;;;4588418;19;20437;-21
2022/11/21 06:30:32;;;;;;;55.47;41.55;;;13.80;75.50;;;;;;4588728;19;20022;-20
2022/11/21 06:32:03;;;;;;;57.88;43.40;;;13.80;75.60;;;;;;4588354;19;20366;-22
2022/11/21 06:33:34;;;;;;;59.88;44.38;;;13.80;75.70;;;;;;4591321;19;20007;-20
2022/11/21 06:35:06;;;;;;;57.80;43.08;;;13.80;75.70;;;;;;4590619;19;20030;-23
2022/11/21 06:36:37;;;;;;;57.03;41.78;;;13.80;75.70;;;;;;4589616;19;20476;-21
2022/11/21 06:38:08;;;;;;;52.85;41.47;;;13.80;75.70;;;;;;4589780;19;20007;-20
2022/11/21 06:39:40;;;;;;;56.25;42.22;;;13.80;75.80;;;;;;4589264;19;20076;-20
2022/11/21 06:41:11;;;;;;;57.95;42.83;;;13.80;75.80;;;;;;4589110;19;20017;-20
2022/11/21 06:42:42;;;;;;;55.80;42.33;;;13.80;75.90;;;;;;4589712;19;20018;-20
2022/11/21 06:44:14;;;;;;;51.63;40.92;;;13.80;75.80;;;;;;4590615;19;20014;-20
2022/11/21 06:45:44;;;;;;;56.00;42.30;;;13.90;75.90;;;;;;4589232;19;20015;-20
2022/11/21 06:47:15;;;;;;;60.38;44.85;;;13.90;76.00;;;;;;4589883;19;20007;-22
2022/11/21 06:48:47;;;;;;;61.60;44.03;;;13.90;75.90;;;;;;4589753;19;20019;-20
2022/11/21 06:50:18;;;;;;;61.85;45.15;;;13.90;76.00;;;;;;4588857;19;20571;-20
2022/11/21 06:51:50;;;;;;;57.55;44.45;;;13.90;75.90;;;;;;4589122;19;20031;-21
2022/11/21 06:53:21;;;;;;;58.08;42.70;;;13.90;75.90;;;;;;4593270;19;20014;-20
2022/11/21 06:54:52;;;;;;;61.60;44.53;;;13.90;75.80;;;;;;4594142;19;20009;-20
2022/11/21 06:56:24;;;;;;;64.07;46.85;;;13.90;75.90;;;;;;4595288;19;20345;-21
2022/11/21 06:57:58;;;;;;;55.40;43.27;;;13.90;76.20;;;;;;4594570;19;20099;-20
2022/11/21 06:59:30;;;;;;;60.97;46.13;;;13.90;76.30;;;;;;4594589;19;21024;-20
2022/11/21 07:01:08;;;;;;;64.72;47.10;;;13.90;76.30;;;;;;4594180;19;20003;-20
2022/11/21 07:02:39;;;;;;;68.33;50.50;;;13.80;76.10;;;;;;4595120;19;20015;-20
2022/11/21 07:04:11;;;;;;;64.10;50.53;;;13.90;76.20;;;;;;4594248;19;20488;-20
2022/11/21 07:05:42;;;;;;;66.50;49.70;;;13.80;76.20;;;;;;4591840;19;20476;-24
2022/11/21 07:07:13;;;;;;;66.60;48.63;;;13.90;76.30;;;;;;4594238;19;20326;-20
2022/11/21 07:08:44;;;;;;;63.42;47.97;;;13.90;76.30;;;;;;4594632;19;20038;-21
2022/11/21 07:10:15;;;;;;;61.53;46.33;;;13.90;76.40;;;;;;4591688;19;20034;-20
2022/11/21 07:11:47;;;;;;;61.15;46.17;;;13.90;76.30;;;;;;4593921;19;20053;-22
2022/11/21 07:13:21;;;;;;;61.08;47.00;;;13.80;76.40;;;;;;4594624;19;20468;-21
2022/11/21 07:14:52;;;;;;;59.83;45.03;;;13.90;76.50;;;;;;4593827;19;20018;-20
2022/11/21 07:16:24;;;;;;;58.42;44.67;;;13.90;76.60;;;;;;4594193;19;20021;-20
2022/11/21 07:17:57;;;;;;;56.13;45.07;;;13.90;76.60;;;;;;4592584;19;20044;-20
2022/11/21 07:19:28;;;;;;;60.47;46.93;;;13.90;76.60;;;;;;4593716;19;20477;-20
2022/11/21 07:21:00;;;;;;;62.25;49.85;;;13.80;76.60;;;;;;4593848;19;20469;-21
2022/11/21 07:22:31;;;;;;;63.03;49.97;;;13.80;76.70;;;;;;4592697;19;20018;-21
2022/11/21 07:24:04;;;;;;;63.53;48.17;;;13.80;76.70;;;;;;4593870;19;20315;-20
2022/11/21 07:25:36;;;;;;;58.57;44.40;;;13.80;76.80;;;;;;4593013;19;19998;-20
2022/11/21 07:27:07;;;;;;;57.30;43.00;;;13.90;76.90;;;;;;4593607;19;20464;-20
2022/11/21 07:28:38;;;;;;;51.35;40.03;;;13.90;76.90;;;;;;4593749;19;20449;-22
2022/11/21 07:30:10;;;;;;;53.75;41.85;;;13.80;76.90;;;;;;4594348;19;20010;-20
2022/11/21 07:31:41;;;;;;;53.10;39.95;;;13.90;77.00;;;;;;4594481;19;20018;-20
2022/11/21 07:33:12;;;;;;;54.00;39.70;;;13.80;76.90;;;;;;4593764;19;20011;-20
2022/11/21 07:34:43;;;;;;;53.42;40.65;;;13.90;77.00;;;;;;4594096;19;20476;-21
2022/11/21 07:36:15;;;;;;;54.38;40.75;;;13.90;77.00;;;;;;4594192;19;20481;-21
2022/11/21 07:37:45;;;;;;;57.80;40.90;;;13.90;77.10;;;;;;4593425;19;20006;-21
2022/11/21 07:39:19;;;;;;;52.53;39.40;;;13.80;77.00;;;;;;4593821;19;20006;-21
2022/11/21 07:40:50;;;;;;;51.35;39.25;;;13.80;77.00;;;;;;4590668;19;20871;-21
2022/11/21 07:42:21;;;;;;;53.35;38.92;;;13.80;77.00;;;;;;4593491;19;20002;-20
2022/11/21 07:43:52;;;;;;;54.67;38.47;;;13.80;77.00;;;;;;4592304;19;20014;-20
2022/11/21 07:45:23;;;;;;;51.15;39.67;;;13.80;77.10;;;;;;4591496;19;20388;-20
2022/11/21 07:46:54;;;;;;;52.80;38.75;;;13.80;77.00;;;;;;4593384;19;20023;-21
2022/11/21 07:48:25;;;;;;;59.05;43.20;;;13.80;77.10;;;;;;4594296;19;20018;-21
2022/11/21 07:49:57;;;;;;;60.70;42.42;;;13.80;77.10;;;;;;4593386;19;20010;-20
2022/11/21 07:51:28;;;;;;;53.83;41.08;;;13.80;77.00;;;;;;4592340;19;20010;-21
2022/11/21 07:53:06;;;;;;;56.03;41.92;;;13.80;77.20;;;;;;4592960;19;20014;-22
2022/11/21 07:54:37;;;;;;;54.17;41.40;;;13.80;77.20;;;;;;4592520;19;20014;-20
2022/11/21 07:56:08;;;;;;;54.15;40.58;;;13.80;77.10;;;;;;4592791;19;21086;-21
2022/11/21 07:57:39;;;;;;;55.05;39.22;;;13.80;77.30;;;;;;4593773;19;20042;-20
2022/11/21 07:59:10;;;;;;;57.25;42.38;;;13.80;77.40;;;;;;4593878;19;20015;-20
2022/11/21 08:00:42;;;;;;;57.67;42.55;;;13.80;77.30;;;;;;4593029;19;20356;-21
2022/11/21 08:02:20;;;;;;;54.20;40.33;;;13.80;77.30;;;;;;4593219;19;20022;-21
2022/11/21 08:03:52;;;;;;;55.60;40.60;;;13.80;77.40;;;;;;4589505;19;20037;-20
2022/11/21 08:05:23;;;;;;;56.95;42.05;;;13.80;77.40;;;;;;4591567;19;20011;-21
2022/11/21 08:06:55;;;;;;;55.37;41.83;;;13.80;77.50;;;;;;4592410;19;20018;-21
2022/11/21 08:08:26;;;;;;;57.67;42.03;;;13.80;77.50;;;;;;4592989;19;20436;-21
2022/11/21 08:09:58;;;;;;;53.38;40.40;;;13.90;77.60;;;;;;4592604;19;20463;-20
2022/11/21 08:11:31;;;;;;;54.20;41.58;;;13.90;77.70;;;;;;4592439;19;20342;-21
2022/11/21 08:13:02;;;;;;;52.17;39.47;;;13.90;77.70;;;;;;4592435;19;20010;-20
2022/11/21 08:14:33;;;;;;;54.28;40.25;;;13.80;77.80;;;;;;4592906;19;20025;-21
2022/11/21 08:16:04;;;;;;;53.80;41.13;;;13.90;77.90;;;;;;4593469;19;19998;-21
2022/11/21 08:17:35;;;;;;;55.13;40.53;;;13.90;77.90;;;;;;4593186;19;20007;-21
2022/11/21 08:19:07;;;;;;;50.17;39.67;;;13.90;78.00;;;;;;4591711;19;20123;-21
2022/11/21 08:20:40;;;;;;;52.90;40.10;;;13.90;78.20;;;;;;4592130;19;20007;-20
2022/11/21 08:22:11;;;;;;;56.17;42.60;;;13.90;78.10;;;;;;4591684;19;20445;-21
2022/11/21 08:23:42;;;;;;;54.42;39.92;;;13.90;78.20;;;;;;4592499;19;20546;-22
2022/11/21 08:25:13;;;;;;;53.70;40.85;;;13.90;78.40;;;;;;4592015;19;20024;-20
2022/11/21 08:26:45;;;;;;;55.17;39.45;;;13.90;78.30;;;;;;4594229;19;20017;-22
2022/11/21 08:28:16;;;;;;;54.38;40.22;;;13.80;78.30;;;;;;4593283;19;20010;-20
2022/11/21 08:29:47;;;;;;;58.00;43.78;;;13.90;78.50;;;;;;4591282;19;20376;-21
2022/11/21 08:31:18;;;;;;;57.95;41.90;;;13.90;78.50;;;;;;4592124;19;20019;-21
2022/11/21 08:32:49;;;;;;;54.83;41.28;;;13.90;78.40;;;;;;4592856;19;20006;-21
2022/11/21 08:34:20;;;;;;;55.85;41.53;;;13.90;78.60;;;;;;4593544;19;20451;-22
2022/11/21 08:35:52;;;;;;;54.50;40.63;;;13.90;78.80;;;;;;4592213;19;20025;-21
2022/11/21 08:37:22;;;;;;;53.78;38.25;;;13.90;78.70;;;;;;4592735;19;20496;-19
2022/11/21 08:38:53;;;;;;;53.60;38.53;;;13.90;78.80;;;;;;4592722;19;20006;-20
2022/11/21 08:40:26;;;;;;;55.13;40.47;;;13.90;78.70;;;;;;4591723;19;20006;-20
2022/11/21 08:42:03;;;;;;;52.93;40.30;;;13.90;78.70;;;;;;4592327;19;20017;-20
2022/11/21 08:43:34;;;;;;;51.53;38.53;;;13.90;78.90;;;;;;4589734;19;20429;-21
2022/11/21 08:45:05;;;;;;;52.55;40.17;;;13.90;78.80;;;;;;4591741;19;20432;-20
2022/11/21 08:46:37;;;;;;;50.00;37.88;;;13.90;78.80;;;;;;4592528;19;20022;-20
2022/11/21 08:48:09;;;;;;;56.15;40.38;;;13.90;78.80;;;;;;4591134;19;20018;-20
2022/11/21 08:49:40;;;;;;;54.80;39.87;;;13.90;78.90;;;;;;4591029;19;20357;-20
2022/11/21 08:51:11;;;;;;;49.47;37.67;;;13.90;78.90;;;;;;4592374;19;20455;-20
2022/11/21 08:52:42;;;;;;;48.42;36.38;;;13.80;78.80;;;;;;4591888;19;20432;-22
2022/11/21 08:54:21;;;;;;;47.05;35.53;;;13.80;79.00;;;;;;4592430;19;20015;-21
2022/11/21 08:55:55;;;;;;;47.87;37.07;;;13.90;79.00;;;;;;4592266;19;20355;-20
2022/11/21 08:57:26;;;;;;;46.87;36.60;;;13.90;79.10;;;;;;4591533;19;20006;-21
2022/11/21 08:58:57;;;;;;;48.78;36.97;;;13.90;78.90;;;;;;4589324;19;20494;-20
2022/11/21 09:00:28;;;;;;;44.97;35.58;;;13.90;79.20;;;;;;4591430;19;20010;-20
2022/11/21 09:01:59;;;;;;;45.47;35.13;;;13.90;79.30;;;;;;4592168;19;20017;-20
2022/11/21 09:03:31;;;;;;;49.53;36.85;;;13.90;79.20;;;;;;4592550;19;20014;-20
2022/11/21 09:05:02;;;;;;;;;;;13.90;79.30;;;;;;4592264;19;20022;-21
2022/11/21 09:06:33;;;;;;;49.37;38.23;;;13.90;79.30;;;;;;4592199;19;19935;-20
2022/11/21 09:08:04;;;;;;;48.80;36.55;;;13.80;79.30;;;;;;4592441;19;20031;-20
2022/11/21 09:09:36;;;;;;;47.35;35.35;;;13.90;79.40;;;;;;4591302;19;20006;-20
2022/11/21 09:11:08;;;;;;;47.13;35.10;;;13.80;79.30;;;;;;4590719;19;20014;-20
2022/11/21 09:12:39;;;;;;;43.60;33.17;;;13.90;79.40;;;;;;4591300;19;20491;-20
2022/11/21 09:18:04;;;;;;;43.27;32.90;;;13.80;79.40;;;;;;4591701;19;20893;-20
2022/11/21 09:19:35;;;;;;;46.30;33.77;;;13.80;79.60;;;;;;4590556;19;20796;-20
2022/11/21 09:21:06;;;;;;;46.95;34.47;;;13.90;79.60;;;;;;4591431;19;20485;-20
2022/11/21 09:22:38;;;;;;;42.35;32.38;;;13.80;79.70;;;;;;4591897;19;20010;-21
2022/11/21 09:24:09;;;;;;;44.95;33.55;;;13.80;79.60;;;;;;4592200;19;20049;-21
2022/11/21 09:25:46;;;;;;;43.33;32.50;;;13.90;79.60;;;;;;4590558;19;20519;-20
2022/11/21 09:27:18;;;;;;;41.17;31.67;;;13.80;79.60;;;;;;4592840;19;20546;-20